Time;durP1;ratioP1;P1;durP2;ratioP2;P2;SDS_P1;SDS_P2;PMS_P1;PMS_P2;Temp;Humidity;BMP_temperature;BMP_pressure;BME280_temperature;BME280_humidity;BME280_pressure;Samples;Min_cycle;Max_cycle;Signal;HPM_P1;HPM_P2
2022/02/25 00:01:23;;;;;;;13.65;10.60;;;6.10;99.90;;;;;;5058341;28;20205;-75
2022/02/25 00:03:51;;;;;;;18.08;10.73;;;6.10;99.90;;;;;;5061206;28;20203;-74
2022/02/25 00:06:21;;;;;;;13.43;10.05;;;6.10;99.90;;;;;;5059993;28;20252;-75
2022/02/25 00:08:48;;;;;;;13.73;9.85;;;6.10;99.90;;;;;;5061463;28;21488;-75
2022/02/25 00:11:15;;;;;;;11.98;9.38;;;6.00;99.90;;;;;;5064322;28;20194;-74
2022/02/25 00:13:42;;;;;;;11.80;10.60;;;6.00;99.90;;;;;;5062266;28;20218;-75
2022/02/25 00:16:09;;;;;;;13.88;11.57;;;6.00;99.90;;;;;;5063793;28;20600;-75
2022/02/25 00:18:37;;;;;;;11.45;9.40;;;6.00;99.90;;;;;;5067393;28;20194;-75
2022/02/25 00:21:05;;;;;;;12.90;11.30;;;5.90;99.90;;;;;;5063246;28;20893;-75
2022/02/25 00:23:32;;;;;;;12.93;10.50;;;5.90;99.90;;;;;;5065295;28;20197;-73
2022/02/25 00:26:00;;;;;;;12.63;10.68;;;5.90;99.90;;;;;;5060692;28;20556;-75
2022/02/25 00:28:27;;;;;;;12.15;10.85;;;5.80;99.90;;;;;;5067036;28;20214;-75
2022/02/25 00:30:54;;;;;;;12.40;11.13;;;5.80;99.90;;;;;;5059647;28;20221;-75
2022/02/25 00:33:21;;;;;;;12.43;10.43;;;5.90;99.90;;;;;;5073526;28;20688;-76
2022/02/25 00:35:49;;;;;;;10.85;9.30;;;5.80;99.90;;;;;;5066955;28;21520;-75
2022/02/25 00:38:18;;;;;;;12.93;10.20;;;5.80;99.90;;;;;;5061442;28;20214;-75
2022/02/25 00:40:45;;;;;;;11.77;9.63;;;5.80;99.90;;;;;;5061493;28;20988;-75
2022/02/25 00:43:12;;;;;;;14.45;10.63;;;5.80;99.90;;;;;;5064645;28;20186;-75
2022/02/25 00:45:39;;;;;;;12.88;10.77;;;5.80;99.90;;;;;;5061009;28;20664;-74
2022/02/25 00:48:07;;;;;;;11.90;9.52;;;5.70;99.90;;;;;;5060485;28;20230;-75
2022/02/25 00:50:34;;;;;;;16.35;10.23;;;5.70;99.90;;;;;;5065435;28;20221;-74
2022/02/25 00:53:01;;;;;;;11.20;9.60;;;5.60;99.90;;;;;;5062602;28;20261;-74
2022/02/25 00:55:30;;;;;;;11.63;9.88;;;5.60;99.90;;;;;;5065865;28;20225;-74
2022/02/25 00:57:58;;;;;;;10.13;8.93;;;5.50;99.90;;;;;;5060112;28;20724;-74
2022/02/25 01:00:26;;;;;;;11.68;9.88;;;5.50;99.90;;;;;;5062536;28;20727;-74
2022/02/25 01:02:53;;;;;;;10.82;9.73;;;5.50;99.90;;;;;;5061334;28;20203;-75
2022/02/25 01:05:21;;;;;;;10.68;9.02;;;5.60;99.90;;;;;;5064729;28;20264;-74
2022/02/25 01:07:48;;;;;;;11.23;9.07;;;5.60;99.90;;;;;;5067632;28;20217;-74
2022/02/25 01:10:17;;;;;;;11.32;9.32;;;5.60;99.90;;;;;;5062363;28;20712;-75
2022/02/25 01:12:47;;;;;;;10.98;9.48;;;5.60;99.90;;;;;;5098864;22;20227;-69
2022/02/25 01:15:16;;;;;;;9.70;8.48;;;5.60;99.90;;;;;;5047478;28;20226;-70
2022/02/25 01:17:44;;;;;;;9.63;8.02;;;5.60;99.90;;;;;;5049683;28;20202;-69
2022/02/25 01:20:12;;;;;;;12.38;9.55;;;5.50;99.90;;;;;;5050528;28;20298;-69
2022/02/25 01:22:39;;;;;;;10.13;8.30;;;5.50;99.90;;;;;;5049804;28;20233;-69
2022/02/25 01:25:07;;;;;;;10.57;8.63;;;5.50;99.90;;;;;;5047786;28;20269;-69
2022/02/25 01:27:35;;;;;;;10.70;9.05;;;5.40;99.90;;;;;;5045353;28;20210;-70
2022/02/25 01:30:04;;;;;;;10.63;9.23;;;5.40;99.90;;;;;;5048282;28;20227;-69
2022/02/25 01:32:32;;;;;;;10.27;8.85;;;5.30;99.90;;;;;;5053496;28;20610;-70
2022/02/25 01:34:59;;;;;;;9.23;8.23;;;5.30;99.90;;;;;;5045717;28;20234;-69
2022/02/25 01:37:26;;;;;;;10.95;9.07;;;5.30;99.90;;;;;;5048680;28;20664;-69
2022/02/25 01:39:54;;;;;;;10.02;8.63;;;5.30;99.90;;;;;;5050411;28;20226;-69
2022/02/25 01:42:21;;;;;;;11.35;9.40;;;5.30;99.90;;;;;;5051308;28;20201;-70
2022/02/25 01:44:48;;;;;;;11.20;9.27;;;5.30;99.90;;;;;;5049891;28;20223;-69
2022/02/25 01:47:17;;;;;;;11.15;9.15;;;5.30;99.90;;;;;;5043419;28;20231;-68
2022/02/25 01:49:45;;;;;;;11.10;9.07;;;5.30;99.90;;;;;;5047302;28;20675;-69
2022/02/25 01:52:14;;;;;;;11.48;9.90;;;5.30;99.90;;;;;;5048349;28;20214;-69
2022/02/25 01:54:43;;;;;;;11.20;9.90;;;5.30;99.90;;;;;;5049650;28;20708;-69
2022/02/25 01:57:12;;;;;;;10.25;8.25;;;5.30;99.90;;;;;;5048895;28;20258;-70
2022/02/25 01:59:39;;;;;;;9.85;8.15;;;5.30;99.90;;;;;;5046971;28;20218;-69
2022/02/25 02:02:07;;;;;;;9.88;8.88;;;5.20;99.90;;;;;;5042989;28;20203;-69
2022/02/25 02:04:37;;;;;;;9.98;8.00;;;5.20;99.90;;;;;;5043049;28;20299;-69
2022/02/25 02:07:04;;;;;;;11.07;8.43;;;5.20;99.90;;;;;;5043993;28;20198;-67
2022/02/25 02:09:31;;;;;;;9.68;8.50;;;5.20;99.90;;;;;;5045447;28;20234;-68
2022/02/25 02:11:59;;;;;;;12.23;9.63;;;5.20;99.90;;;;;;5043180;28;20207;-68
2022/02/25 02:14:27;;;;;;;11.55;9.10;;;5.20;99.90;;;;;;5044608;28;20705;-68
2022/02/25 02:16:56;;;;;;;10.70;8.50;;;5.10;99.90;;;;;;5040697;28;20583;-68
2022/02/25 02:19:24;;;;;;;10.02;9.02;;;5.10;99.90;;;;;;5047450;28;20198;-68
2022/02/25 02:21:54;;;;;;;8.82;7.93;;;5.00;99.90;;;;;;5041530;28;20206;-68
2022/02/25 02:24:24;;;;;;;9.20;7.88;;;5.00;99.90;;;;;;5047673;28;20705;-68
2022/02/25 02:26:52;;;;;;;11.35;9.10;;;5.00;99.90;;;;;;5041226;28;20203;-68
2022/02/25 02:29:20;;;;;;;10.55;8.65;;;5.00;99.90;;;;;;5045338;28;20206;-68
2022/02/25 02:31:47;;;;;;;9.00;7.90;;;5.00;99.90;;;;;;5040223;28;20575;-68
2022/02/25 02:34:17;;;;;;;9.27;8.13;;;5.00;99.90;;;;;;5044433;28;20644;-68
2022/02/25 02:36:44;;;;;;;9.05;7.72;;;5.00;99.90;;;;;;5021614;28;20326;-68
2022/02/25 02:39:12;;;;;;;9.02;8.13;;;5.00;99.90;;;;;;5015771;28;20196;-68
2022/02/25 02:41:41;;;;;;;9.15;8.05;;;5.10;99.90;;;;;;5045007;28;20241;-68
2022/02/25 02:46:49;;;;;;;11.02;8.90;;;5.00;99.90;;;;;;5038624;28;20258;-68
2022/02/25 02:49:16;;;;;;;8.80;7.90;;;4.90;99.90;;;;;;5041638;28;20199;-67
2022/02/25 02:51:43;;;;;;;10.65;8.27;;;4.90;99.90;;;;;;5040484;28;20222;-68
2022/02/25 02:54:10;;;;;;;8.65;7.10;;;4.90;99.90;;;;;;5044115;28;20219;-68
2022/02/25 02:56:38;;;;;;;11.80;8.50;;;4.90;99.90;;;;;;5041451;28;20699;-67
2022/02/25 02:59:06;;;;;;;9.05;6.75;;;4.90;99.90;;;;;;5044351;28;20207;-68
2022/02/25 03:01:34;;;;;;;8.77;7.88;;;4.90;99.90;;;;;;5043815;28;20299;-68
2022/02/25 03:04:01;;;;;;;8.55;7.32;;;5.00;99.90;;;;;;5045439;28;20219;-67
2022/02/25 03:06:29;;;;;;;9.32;8.02;;;4.90;99.90;;;;;;5044444;28;20284;-68
2022/02/25 03:08:56;;;;;;;8.93;7.38;;;4.90;99.90;;;;;;5042467;28;20207;-67
2022/02/25 03:11:23;;;;;;;9.70;8.05;;;4.90;99.90;;;;;;5045204;28;20226;-68
2022/02/25 03:13:51;;;;;;;8.68;7.57;;;4.80;99.90;;;;;;5048657;28;20225;-68
2022/02/25 03:16:20;;;;;;;8.77;7.88;;;4.80;99.90;;;;;;5040973;28;20214;-68
2022/02/25 03:18:47;;;;;;;8.32;7.43;;;4.70;99.90;;;;;;5040591;28;20713;-68
2022/02/25 03:21:14;;;;;;;9.05;8.15;;;4.70;99.90;;;;;;5046673;28;20218;-68
2022/02/25 03:23:41;;;;;;;9.27;8.07;;;4.70;99.90;;;;;;5048893;28;20356;-67
2022/02/25 03:26:10;;;;;;;8.95;8.05;;;4.60;99.90;;;;;;5048827;28;20348;-68
2022/02/25 03:28:38;;;;;;;9.18;7.85;;;4.50;99.90;;;;;;5045002;28;20209;-68
2022/02/25 03:31:05;;;;;;;9.20;7.68;;;4.50;99.90;;;;;;5049759;28;20269;-69
2022/02/25 03:33:34;;;;;;;7.20;6.45;;;4.50;99.90;;;;;;5051910;28;20225;-68
2022/02/25 03:36:01;;;;;;;8.80;7.88;;;4.50;99.90;;;;;;5046962;28;20575;-68
2022/02/25 03:38:29;;;;;;;8.57;7.68;;;4.40;99.90;;;;;;5051324;28;20669;-68
2022/02/25 03:40:56;;;;;;;7.85;7.13;;;4.40;99.90;;;;;;5045512;28;20713;-68
2022/02/25 03:43:23;;;;;;;8.05;7.25;;;4.40;99.90;;;;;;5058108;28;20276;-68
2022/02/25 03:45:50;;;;;;;10.05;8.00;;;4.40;99.90;;;;;;5046757;28;20218;-68
2022/02/25 03:48:17;;;;;;;8.93;7.60;;;4.30;99.90;;;;;;5051229;28;20195;-68
2022/02/25 03:50:46;;;;;;;11.63;9.80;;;4.30;99.90;;;;;;5050717;28;20799;-69
2022/02/25 03:53:13;;;;;;;10.05;7.15;;;4.20;99.90;;;;;;5047625;28;20265;-68
2022/02/25 03:55:40;;;;;;;7.30;6.60;;;4.20;99.90;;;;;;5052428;28;20280;-68
2022/02/25 03:58:07;;;;;;;8.10;7.30;;;4.10;99.90;;;;;;5043726;28;20637;-68
2022/02/25 04:00:34;;;;;;;7.22;6.32;;;4.10;99.90;;;;;;5049020;28;20218;-67
2022/02/25 04:03:01;;;;;;;8.23;7.38;;;4.10;99.90;;;;;;5044542;28;20223;-68
2022/02/25 04:05:28;;;;;;;9.73;7.32;;;4.10;99.90;;;;;;5045191;28;20280;-68
2022/02/25 04:07:56;;;;;;;6.82;6.13;;;4.10;99.90;;;;;;5044753;28;20253;-68
2022/02/25 04:10:23;;;;;;;8.05;7.25;;;4.10;99.90;;;;;;5045431;28;20222;-68
2022/02/25 04:12:50;;;;;;;8.77;7.93;;;4.10;99.90;;;;;;5045348;28;20230;-68
2022/02/25 04:15:19;;;;;;;8.65;6.95;;;4.10;99.90;;;;;;5052401;28;20252;-68
2022/02/25 04:17:46;;;;;;;9.68;8.23;;;4.10;99.90;;;;;;5042561;28;20658;-68
2022/02/25 04:20:13;;;;;;;7.97;7.18;;;4.10;99.90;;;;;;5041621;28;20238;-68
2022/02/25 04:22:40;;;;;;;8.00;7.20;;;4.00;99.90;;;;;;5048858;28;20225;-68
2022/02/25 04:25:09;;;;;;;8.90;8.00;;;4.00;99.90;;;;;;5046284;28;20226;-68
2022/02/25 04:27:37;;;;;;;7.88;7.07;;;4.00;99.90;;;;;;5044727;28;20260;-68
2022/02/25 04:30:05;;;;;;;7.68;6.90;;;4.00;99.90;;;;;;5047134;28;21510;-68
2022/02/25 04:32:33;;;;;;;8.20;7.40;;;4.00;99.90;;;;;;5047791;28;20277;-68
2022/02/25 04:35:00;;;;;;;8.30;7.50;;;4.00;99.90;;;;;;5047660;28;20297;-68
2022/02/25 04:37:27;;;;;;;8.13;7.43;;;4.00;99.90;;;;;;5050798;28;20733;-69
2022/02/25 04:39:54;;;;;;;8.20;7.30;;;4.00;99.90;;;;;;5049896;28;20256;-68
2022/02/25 04:42:22;;;;;;;8.07;7.28;;;4.00;99.90;;;;;;5044673;28;20674;-68
2022/02/25 04:44:49;;;;;;;7.88;7.10;;;4.00;99.90;;;;;;5045355;28;20206;-68
2022/02/25 04:47:16;;;;;;;8.93;7.97;;;4.00;99.90;;;;;;5051147;28;20214;-68
2022/02/25 04:49:43;;;;;;;7.90;7.13;;;4.00;99.90;;;;;;5049418;28;20653;-68
2022/02/25 04:52:12;;;;;;;7.75;7.05;;;4.00;99.90;;;;;;5023707;28;20224;-68
2022/02/25 04:54:39;;;;;;;7.53;6.82;;;3.90;99.90;;;;;;5023272;28;20281;-68
2022/02/25 04:57:06;;;;;;;8.75;7.30;;;3.90;99.90;;;;;;5059666;28;20312;-68
2022/02/25 04:59:34;;;;;;;8.73;7.82;;;3.90;99.90;;;;;;5063371;28;20217;-68
2022/02/25 05:02:01;;;;;;;9.82;7.35;;;3.80;99.90;;;;;;5059232;28;20263;-67
2022/02/25 05:04:28;;;;;;;8.10;6.35;;;3.90;99.90;;;;;;5060416;28;20585;-68
2022/02/25 05:06:55;;;;;;;7.55;6.75;;;3.80;99.90;;;;;;5064605;28;20222;-68
2022/02/25 05:09:22;;;;;;;7.70;6.93;;;3.90;99.90;;;;;;5061854;28;20633;-68
2022/02/25 05:11:49;;;;;;;8.48;7.57;;;3.90;99.90;;;;;;5064651;28;20232;-68
2022/02/25 05:22:28;;;;;;;8.23;7.45;;;3.70;99.90;;;;;;5065022;28;20256;-68
2022/02/25 05:24:56;;;;;;;8.73;7.82;;;3.70;99.90;;;;;;5062816;28;20195;-67
2022/02/25 05:27:23;;;;;;;7.90;7.10;;;3.70;99.90;;;;;;5067110;28;20221;-68
2022/02/25 05:29:50;;;;;;;7.53;6.72;;;3.70;99.90;;;;;;5062151;28;20198;-68
2022/02/25 05:32:18;;;;;;;8.05;7.32;;;3.60;99.90;;;;;;5062652;28;20225;-68
2022/02/25 05:34:45;;;;;;;7.25;6.57;;;3.60;99.90;;;;;;5065401;28;20291;-68
2022/02/25 05:37:12;;;;;;;6.47;5.85;;;3.60;99.90;;;;;;5062716;28;20283;-68
2022/02/25 05:39:39;;;;;;;7.55;6.75;;;3.60;99.90;;;;;;5063901;28;20687;-68
2022/02/25 05:42:07;;;;;;;7.97;7.07;;;3.60;99.90;;;;;;5063701;28;20621;-68
2022/02/25 05:44:34;;;;;;;7.57;6.80;;;3.60;99.90;;;;;;5063974;28;20622;-68
2022/02/25 05:47:01;;;;;;;6.75;6.05;;;3.60;99.90;;;;;;5058351;28;20237;-68
2022/02/25 05:49:30;;;;;;;6.95;6.25;;;3.60;99.90;;;;;;5060654;28;20201;-68
2022/02/25 05:51:58;;;;;;;9.27;7.25;;;3.60;99.90;;;;;;5059244;28;20224;-68
2022/02/25 05:54:25;;;;;;;8.90;7.97;;;3.50;99.90;;;;;;5061744;28;20642;-68
2022/02/25 05:56:52;;;;;;;9.20;8.20;;;3.60;99.90;;;;;;5059813;28;20600;-68
2022/02/25 05:59:19;;;;;;;8.32;7.50;;;3.50;99.90;;;;;;5063067;28;21908;-68
2022/02/25 06:01:46;;;;;;;8.10;7.30;;;3.50;99.90;;;;;;5058863;28;20265;-68
2022/02/25 06:04:13;;;;;;;8.15;7.35;;;3.50;99.90;;;;;;5061200;28;20213;-68
2022/02/25 06:06:41;;;;;;;8.02;7.22;;;3.50;99.90;;;;;;5063905;28;20226;-68
2022/02/25 06:09:08;;;;;;;7.82;7.05;;;3.50;99.90;;;;;;5062294;28;20255;-68
2022/02/25 06:11:35;;;;;;;7.57;6.63;;;3.50;99.90;;;;;;5062239;28;20627;-69
2022/02/25 06:14:02;;;;;;;7.82;7.05;;;3.50;99.90;;;;;;5062986;28;20599;-68
2022/02/25 06:16:29;;;;;;;9.00;7.30;;;3.50;99.90;;;;;;5057931;28;20546;-68
2022/02/25 06:18:56;;;;;;;7.95;6.70;;;3.50;99.90;;;;;;5059542;28;20194;-68
2022/02/25 06:21:23;;;;;;;8.27;7.47;;;3.50;99.90;;;;;;5060002;28;20571;-68
2022/02/25 06:23:52;;;;;;;7.35;6.65;;;3.50;99.90;;;;;;5064498;28;20222;-68
2022/02/25 06:26:19;;;;;;;8.35;7.55;;;3.50;99.90;;;;;;5071773;28;20205;-68
2022/02/25 06:28:46;;;;;;;8.95;8.05;;;3.50;99.90;;;;;;5069800;28;20577;-68
2022/02/25 06:31:13;;;;;;;8.65;7.90;;;3.50;99.90;;;;;;5069053;28;20194;-68
2022/02/25 06:33:40;;;;;;;9.15;8.25;;;3.50;99.90;;;;;;5068245;28;20781;-67
2022/02/25 06:36:07;;;;;;;10.80;9.60;;;3.50;99.90;;;;;;5069116;28;20226;-68
2022/02/25 06:38:34;;;;;;;10.00;8.95;;;3.60;99.90;;;;;;5059404;28;20217;-68
2022/02/25 06:41:02;;;;;;;11.00;9.10;;;3.60;99.90;;;;;;5062336;28;20198;-68
2022/02/25 06:43:29;;;;;;;13.52;9.68;;;3.70;99.90;;;;;;5061089;28;20229;-68
2022/02/25 06:45:57;;;;;;;12.35;9.45;;;3.70;99.90;;;;;;5058867;28;20197;-69
2022/02/25 06:48:24;;;;;;;10.32;9.15;;;3.80;99.90;;;;;;5061691;28;20218;-69
2022/02/25 06:50:51;;;;;;;9.93;8.88;;;3.80;99.90;;;;;;5058168;28;20213;-68
2022/02/25 06:53:18;;;;;;;9.70;7.88;;;3.80;99.90;;;;;;5061495;28;20233;-69
2022/02/25 06:55:46;;;;;;;8.95;8.00;;;3.80;99.90;;;;;;5063978;28;20643;-68
2022/02/25 06:58:14;;;;;;;9.55;8.57;;;3.70;99.90;;;;;;5062659;28;20218;-69
2022/02/25 07:00:41;;;;;;;8.02;7.25;;;3.70;99.90;;;;;;5065812;28;20644;-68
2022/02/25 07:03:08;;;;;;;7.95;7.15;;;3.70;99.90;;;;;;5062474;28;20226;-69
2022/02/25 07:05:39;;;;;;;7.93;6.50;;;3.70;99.90;;;;;;5067047;28;20202;-68
2022/02/25 07:08:06;;;;;;;7.38;6.78;;;3.70;99.90;;;;;;5064372;28;21657;-67
2022/02/25 07:10:35;;;;;;;7.15;6.45;;;3.80;99.90;;;;;;5070239;28;20194;-69
2022/02/25 07:15:31;;;;;;;6.32;5.45;;;3.80;99.90;;;;;;5126557;22;20233;-75
2022/02/25 07:17:59;;;;;;;7.00;6.30;;;3.90;99.90;;;;;;5067046;28;20225;-78
2022/02/25 07:20:27;;;;;;;8.05;7.13;;;4.10;99.90;;;;;;5057704;28;20202;-76
2022/02/25 07:22:54;;;;;;;8.05;7.20;;;5.00;99.90;;;;;;5061398;28;20980;-78
2022/02/25 07:25:22;;;;;;;8.15;6.93;;;6.00;99.90;;;;;;5061519;28;20222;-75
2022/02/25 07:27:49;;;;;;;7.57;6.80;;;6.70;99.90;;;;;;5057372;28;20227;-77
2022/02/25 07:30:17;;;;;;;7.97;7.18;;;7.40;99.90;;;;;;5061882;28;20546;-80
2022/02/25 07:32:45;;;;;;;8.38;7.32;;;8.00;99.90;;;;;;5058594;28;20768;-73
2022/02/25 07:35:13;;;;;;;7.90;6.75;;;8.20;99.90;;;;;;5059433;28;20222;-75
2022/02/25 07:37:41;;;;;;;8.35;6.95;;;8.60;99.90;;;;;;5062950;28;20240;-75
2022/02/25 07:40:10;;;;;;;9.90;7.07;;;9.00;99.90;;;;;;5073116;28;20198;-75
2022/02/25 07:42:38;;;;;;;8.35;7.03;;;9.40;99.90;;;;;;5064490;28;20700;-77
2022/02/25 07:45:06;;;;;;;7.30;6.25;;;9.70;99.90;;;;;;5058046;28;20206;-76
2022/02/25 07:47:33;;;;;;;8.15;6.18;;;9.90;99.90;;;;;;5062267;28;20271;-77
2022/02/25 07:50:01;;;;;;;8.00;7.20;;;10.00;99.90;;;;;;5060911;28;20202;-75
2022/02/25 07:52:28;;;;;;;6.82;6.13;;;10.30;99.90;;;;;;5061555;28;20218;-75
2022/02/25 07:54:56;;;;;;;7.72;6.90;;;10.60;99.90;;;;;;5060031;28;20838;-76
2022/02/25 07:57:23;;;;;;;7.72;6.88;;;10.90;99.90;;;;;;5058748;28;20217;-76
2022/02/25 07:59:50;;;;;;;7.53;6.22;;;11.10;99.90;;;;;;5058831;28;20669;-78
2022/02/25 08:02:17;;;;;;;6.68;6.07;;;11.30;99.90;;;;;;5058313;28;20229;-76
2022/02/25 08:04:44;;;;;;;7.55;6.85;;;11.60;99.90;;;;;;5064677;28;20729;-79
2022/02/25 08:07:13;;;;;;;7.32;6.05;;;12.10;99.90;;;;;;5065874;28;20229;-83
2022/02/25 08:09:40;;;;;;;7.68;6.85;;;12.40;99.90;;;;;;5063692;28;20202;-80
2022/02/25 08:12:07;;;;;;;7.38;6.45;;;12.60;99.90;;;;;;5059632;28;20214;-80
2022/02/25 08:14:37;;;;;;;8.52;6.53;;;12.80;99.90;;;;;;5059896;28;20915;-76
2022/02/25 08:17:05;;;;;;;6.75;6.03;;;12.80;99.90;;;;;;5058756;28;20231;-79
2022/02/25 08:19:32;;;;;;;7.15;6.00;;;12.70;99.90;;;;;;5059344;28;20247;-82
2022/02/25 08:21:59;;;;;;;7.35;6.13;;;12.90;99.90;;;;;;5056512;28;20231;-80
2022/02/25 08:24:27;;;;;;;6.85;6.10;;;13.00;99.90;;;;;;5060140;28;20608;-77
2022/02/25 08:26:54;;;;;;;6.47;5.75;;;13.20;99.90;;;;;;5065327;28;20198;-76
2022/02/25 08:29:21;;;;;;;6.72;5.80;;;13.40;99.90;;;;;;5059429;28;20794;-76
2022/02/25 08:31:51;;;;;;;7.05;6.00;;;13.70;99.90;;;;;;5065082;28;20228;-77
2022/02/25 08:34:19;;;;;;;7.93;6.93;;;13.80;99.90;;;;;;5072097;28;20221;-79
2022/02/25 08:36:46;;;;;;;7.18;6.47;;;13.90;99.90;;;;;;5068370;28;20217;-80
2022/02/25 08:39:13;;;;;;;8.30;6.03;;;14.20;99.90;;;;;;5070326;28;20198;-79
2022/02/25 08:41:42;;;;;;;7.65;6.22;;;14.50;99.90;;;;;;5062372;28;20627;-78
2022/02/25 08:44:10;;;;;;;6.00;5.32;;;14.20;99.90;;;;;;5071238;28;20225;-75
2022/02/25 08:46:37;;;;;;;7.22;6.20;;;14.10;99.90;;;;;;5064788;28;20201;-79
2022/02/25 08:49:05;;;;;;;6.47;5.60;;;14.40;99.90;;;;;;5068146;28;20772;-77
2022/02/25 08:51:32;;;;;;;8.05;6.35;;;14.50;99.90;;;;;;5067046;28;20198;-74
2022/02/25 08:53:59;;;;;;;6.05;5.45;;;14.50;99.90;;;;;;5065288;28;20246;-75
2022/02/25 08:56:27;;;;;;;6.35;5.75;;;14.50;99.90;;;;;;5067280;28;21334;-81
2022/02/25 08:58:55;;;;;;;8.07;5.93;;;14.70;99.90;;;;;;5067247;28;20230;-80
2022/02/25 09:01:23;;;;;;;7.45;6.22;;;15.00;98.50;;;;;;5066988;28;20202;-78
2022/02/25 09:03:50;;;;;;;6.63;5.93;;;14.80;98.00;;;;;;5067581;28;20222;-79
2022/02/25 09:06:18;;;;;;;7.40;6.38;;;14.60;99.10;;;;;;5067197;28;20197;-76
2022/02/25 09:08:45;;;;;;;7.10;5.95;;;14.60;99.10;;;;;;5060753;28;20535;-79
2022/02/25 09:11:12;;;;;;;7.53;6.10;;;14.50;98.90;;;;;;5060575;28;20202;-75
2022/02/25 09:13:40;;;;;;;6.95;6.20;;;14.50;98.70;;;;;;5068682;28;20656;-75
2022/02/25 09:16:09;;;;;;;6.63;5.90;;;14.50;98.40;;;;;;5072152;28;20214;-79
2022/02/25 09:18:36;;;;;;;6.28;5.68;;;14.40;98.40;;;;;;5066887;28;20261;-79
2022/02/25 09:21:04;;;;;;;6.03;5.43;;;14.60;98.60;;;;;;5065001;28;20194;-81
2022/02/25 09:23:31;;;;;;;6.47;5.75;;;14.80;98.90;;;;;;5065066;28;20231;-81
2022/02/25 09:25:58;;;;;;;6.88;5.68;;;14.90;98.60;;;;;;5069739;28;20286;-78
2022/02/25 09:28:25;;;;;;;8.07;6.38;;;15.10;98.80;;;;;;5061785;28;20218;-80
2022/02/25 09:30:52;;;;;;;8.60;6.88;;;15.30;98.80;;;;;;5063584;28;20225;-84
2022/02/25 09:33:21;;;;;;;6.22;5.63;;;15.40;98.40;;;;;;5065001;28;20222;-77
2022/02/25 09:35:48;;;;;;;6.65;5.57;;;15.50;97.30;;;;;;5064084;28;20540;-76
2022/02/25 09:38:15;;;;;;;10.13;6.38;;;15.50;96.60;;;;;;5061809;28;20222;-82
2022/02/25 09:40:42;;;;;;;6.55;5.40;;;15.50;96.30;;;;;;5059603;28;20198;-80
2022/02/25 09:43:10;;;;;;;9.30;6.47;;;15.50;95.70;;;;;;5063086;28;20219;-79
2022/02/25 09:45:37;;;;;;;8.68;6.60;;;15.70;96.40;;;;;;5066468;28;20417;-85
2022/02/25 09:48:06;;;;;;;7.97;6.20;;;16.00;97.10;;;;;;5067668;28;20262;-79
2022/02/25 09:50:34;;;;;;;6.05;5.40;;;16.30;96.50;;;;;;5065783;28;20209;-79
2022/02/25 09:53:01;;;;;;;6.95;5.68;;;16.40;95.50;;;;;;5061586;28;20222;-79
2022/02/25 09:55:31;;;;;;;6.50;5.85;;;16.70;95.70;;;;;;5065964;28;20233;-78
2022/02/25 09:58:00;;;;;;;6.70;5.47;;;16.90;94.90;;;;;;5058881;28;20939;-77
2022/02/25 10:00:27;;;;;;;6.50;5.47;;;16.90;94.00;;;;;;5057765;28;20195;-76
2022/02/25 10:02:56;;;;;;;7.00;6.30;;;16.70;94.20;;;;;;5062455;28;20217;-83
2022/02/25 10:05:25;;;;;;;5.90;5.13;;;16.60;94.80;;;;;;5062706;28;20225;-80
2022/02/25 10:07:54;;;;;;;6.55;5.80;;;16.60;93.90;;;;;;5062289;28;20229;-78
2022/02/25 10:10:28;;;;;;;5.93;5.32;;;16.60;93.60;;;;;;5050764;28;20202;-80
2022/02/25 10:12:58;;;;;;;6.82;5.68;;;16.80;93.50;;;;;;5056727;28;20216;-79
2022/02/25 10:15:29;;;;;;;7.53;5.45;;;16.70;93.40;;;;;;5060910;28;20234;-78
2022/02/25 10:18:01;;;;;;;6.20;5.15;;;16.80;91.00;;;;;;5063536;28;20289;-82
2022/02/25 10:20:29;;;;;;;5.38;4.80;;;16.50;92.10;;;;;;5056102;28;20212;-80
2022/02/25 10:22:58;;;;;;;7.53;4.68;;;16.30;92.30;;;;;;5059268;28;20225;-80
2022/02/25 10:25:31;;;;;;;6.65;5.28;;;16.50;92.70;;;;;;5059423;28;20257;-80
2022/02/25 10:27:58;;;;;;;6.45;5.30;;;16.60;93.10;;;;;;5053586;28;20601;-82
2022/02/25 10:30:27;;;;;;;6.07;4.63;;;16.70;91.80;;;;;;5060486;28;20207;-80
2022/02/25 10:32:56;;;;;;;5.00;4.50;;;16.30;91.50;;;;;;5060443;28;20243;-78
2022/02/25 10:35:27;;;;;;;5.85;4.57;;;16.20;91.50;;;;;;5058948;28;20782;-80
2022/02/25 10:38:04;;;;;;;6.65;5.50;;;16.40;91.00;;;;;;5061697;28;20222;-80
2022/02/25 10:40:34;;;;;;;5.47;4.55;;;16.30;90.40;;;;;;5057074;28;20201;-81
2022/02/25 10:43:03;;;;;;;6.70;5.00;;;16.40;91.00;;;;;;5059725;28;20218;-80
2022/02/25 10:45:33;;;;;;;6.22;5.40;;;16.50;91.10;;;;;;5062427;28;20214;-79
2022/02/25 10:48:02;;;;;;;5.82;5.22;;;16.60;91.30;;;;;;5056541;28;20221;-77
2022/02/25 10:50:30;;;;;;;5.30;4.45;;;16.80;92.10;;;;;;5063690;28;20259;-79
2022/02/25 10:52:58;;;;;;;5.85;4.22;;;16.90;91.80;;;;;;5056846;28;20217;-77
2022/02/25 10:55:29;;;;;;;3.88;3.55;;;17.20;91.00;;;;;;5061953;28;20379;-81
2022/02/25 10:57:57;;;;;;;4.50;4.10;;;17.50;90.80;;;;;;5055885;28;20249;-81
2022/02/25 11:00:26;;;;;;;5.05;4.03;;;17.80;90.90;;;;;;5053634;28;20202;-80
2022/02/25 11:02:56;;;;;;;4.38;3.97;;;17.70;86.90;;;;;;5056411;28;20225;-79
2022/02/25 11:05:24;;;;;;;4.32;3.92;;;17.10;89.30;;;;;;5059367;28;20245;-81
2022/02/25 11:07:53;;;;;;;6.88;4.65;;;17.10;90.40;;;;;;5055626;28;20239;-82
2022/02/25 11:10:22;;;;;;;4.85;3.95;;;17.10;90.00;;;;;;5055449;28;20198;-84
2022/02/25 11:12:52;;;;;;;4.65;4.18;;;17.30;91.10;;;;;;5055987;28;20268;-83
2022/02/25 11:15:21;;;;;;;4.47;3.88;;;17.60;90.60;;;;;;5060578;28;20256;-80
2022/02/25 11:17:49;;;;;;;4.75;4.25;;;17.50;88.80;;;;;;5059414;28;20628;-79
2022/02/25 11:20:21;;;;;;;3.75;3.35;;;17.00;89.30;;;;;;5057925;28;20561;-77
2022/02/25 11:22:53;;;;;;;4.95;3.65;;;16.40;90.30;;;;;;5053436;28;20230;-83
2022/02/25 11:25:21;;;;;;;4.82;3.28;;;16.00;90.40;;;;;;5058800;28;20215;-79
2022/02/25 11:27:48;;;;;;;3.60;3.08;;;16.20;90.70;;;;;;5055988;28;20230;-86
2022/02/25 11:30:22;;;;;;;4.15;3.72;;;16.20;91.30;;;;;;5055147;28;20198;-79
2022/02/25 11:32:56;;;;;;;4.97;4.05;;;16.60;91.00;;;;;;5056023;28;20775;-84
2022/02/25 11:35:26;;;;;;;4.35;3.55;;;17.40;91.20;;;;;;5056036;28;20308;-81
2022/02/25 11:37:59;;;;;;;4.25;3.72;;;17.20;88.50;;;;;;5053929;28;20227;-80
2022/02/25 11:40:50;;;;;;;4.93;3.72;;;16.80;90.10;;;;;;5057809;28;20226;-78
2022/02/25 11:43:17;;;;;;;4.78;3.67;;;16.30;90.10;;;;;;5059627;28;20214;-80
2022/02/25 11:45:51;;;;;;;3.83;3.42;;;16.20;91.50;;;;;;5057803;28;20332;-78
2022/02/25 11:48:22;;;;;;;4.57;3.78;;;16.30;91.10;;;;;;5059932;28;20218;-79
2022/02/25 11:50:51;;;;;;;6.35;3.60;;;16.10;91.50;;;;;;5057897;28;21896;-78
2022/02/25 11:53:21;;;;;;;3.40;3.10;;;16.00;91.90;;;;;;5063629;28;20238;-82
2022/02/25 11:55:49;;;;;;;3.67;3.25;;;16.00;92.00;;;;;;5057092;28;20202;-86
2022/02/25 11:58:42;;;;;;;3.70;3.38;;;16.20;91.60;;;;;;5059994;28;20222;-81
2022/02/25 12:01:14;;;;;;;4.55;3.20;;;16.30;91.90;;;;;;5056636;28;20205;-80
2022/02/25 12:04:07;;;;;;;3.85;3.00;;;16.20;92.10;;;;;;5065800;28;20222;-84
2022/02/25 12:07:00;;;;;;;6.32;3.20;;;16.10;90.70;;;;;;5057066;28;20186;-78
2022/02/25 12:09:45;;;;;;;3.03;2.67;;;15.90;91.00;;;;;;5055447;28;20338;-85
2022/02/25 12:12:34;;;;;;;3.38;3.03;;;15.80;91.20;;;;;;5059645;28;20198;-79
2022/02/25 12:15:04;;;;;;;2.72;2.40;;;15.70;91.30;;;;;;5064022;28;20222;-77
2022/02/25 12:17:39;;;;;;;2.92;2.63;;;15.60;92.20;;;;;;5062113;28;20731;-81
2022/02/25 12:20:08;;;;;;;3.25;2.33;;;15.60;91.10;;;;;;5076176;28;21661;-79
2022/02/25 12:22:56;;;;;;;2.60;2.40;;;15.50;90.50;;;;;;5081581;28;20326;-78
2022/02/25 12:25:52;;;;;;;2.78;2.47;;;15.50;89.60;;;;;;5058018;28;20222;-79
2022/02/25 12:28:45;;;;;;;5.75;2.45;;;15.40;88.00;;;;;;5016026;28;20240;-76
2022/02/25 12:31:14;;;;;;;2.35;2.15;;;15.20;89.80;;;;;;5058141;28;20683;-80
2022/02/25 12:33:55;;;;;;;3.15;2.40;;;15.20;90.90;;;;;;5057947;28;20225;-80
2022/02/25 12:36:44;;;;;;;5.53;2.40;;;15.20;90.30;;;;;;5077625;28;20488;-77
2022/02/25 12:39:31;;;;;;;2.58;2.38;;;15.10;89.70;;;;;;5075675;28;20194;-78
2022/02/25 12:42:01;;;;;;;2.33;2.13;;;15.00;90.40;;;;;;5080785;28;20190;-77
2022/02/25 12:44:30;;;;;;;2.20;2.00;;;15.00;90.00;;;;;;5076522;28;20294;-77
2022/02/25 12:46:58;;;;;;;2.75;2.17;;;14.90;88.40;;;;;;5077079;28;20218;-78
2022/02/25 12:49:28;;;;;;;2.35;2.15;;;14.90;89.50;;;;;;5078831;28;20723;-78
2022/02/25 12:51:57;;;;;;;2.30;2.10;;;14.90;88.10;;;;;;5077762;28;20214;-77
2022/02/25 12:54:26;;;;;;;2.67;1.70;;;14.70;81.70;;;;;;5076174;28;20222;-75
2022/02/25 12:56:55;;;;;;;1.10;1.02;;;14.40;76.60;;;;;;5080534;28;20214;-82
2022/02/25 12:59:31;;;;;;;2.65;1.20;;;14.10;72.20;;;;;;5075014;28;20870;-75
2022/02/25 13:01:59;;;;;;;1.08;0.98;;;14.00;70.50;;;;;;5072183;28;20197;-78
2022/02/25 13:04:30;;;;;;;1.58;1.10;;;13.90;70.40;;;;;;5076633;28;20789;-76
2022/02/25 13:06:58;;;;;;;1.02;1.02;;;13.80;65.50;;;;;;5076791;28;20216;-74
2022/02/25 13:09:27;;;;;;;0.80;0.80;;;13.70;66.60;;;;;;5074628;28;20263;-74
2022/02/25 13:11:57;;;;;;;1.08;1.00;;;13.70;66.90;;;;;;5077822;28;20197;-74